createdAt,value
2017-10-29T00:00:08.473Z,72.40
2017-10-29T00:02:34.610Z,72.20
2017-10-29T00:05:00.714Z,72.50
2017-10-29T00:07:26.838Z,72.40
2017-10-29T00:09:52.953Z,72.40
2017-10-29T00:12:20.439Z,72.20
2017-10-29T00:14:46.546Z,72.10
2017-10-29T00:17:19.817Z,71.90
2017-10-29T00:19:46.050Z,71.90
2017-10-29T00:22:15.726Z,71.30
2017-10-29T00:24:41.938Z,71.60
2017-10-29T00:27:08.075Z,71.80
2017-10-29T00:29:34.200Z,72.60
2017-10-29T00:32:01.750Z,72.90
2017-10-29T00:34:27.878Z,72.90
2017-10-29T00:36:54.762Z,72.70
2017-10-29T00:39:20.909Z,73.00
2017-10-29T00:41:48.608Z,73.80
2017-10-29T00:44:15.498Z,73.50
2017-10-29T00:46:41.624Z,73.20
2017-10-29T00:49:08.525Z,73.50
2017-10-29T00:51:34.633Z,73.60
2017-10-29T00:54:00.764Z,73.30
2017-10-29T00:56:27.673Z,72.60
2017-10-29T00:58:53.796Z,72.50
2017-10-29T01:01:19.928Z,73.40
2017-10-29T01:03:46.331Z,73.20
2017-10-29T01:06:12.512Z,72.50
2017-10-29T01:08:38.645Z,72.70
2017-10-29T01:11:04.764Z,72.60
2017-10-29T01:13:30.885Z,72.60
2017-10-29T01:15:57.208Z,72.90
2017-10-29T01:18:23.387Z,73.30
2017-10-29T01:20:49.518Z,73.50
2017-10-29T01:23:15.668Z,73.60
2017-10-29T01:25:41.780Z,73.30
2017-10-29T01:28:07.945Z,73.70
2017-10-29T01:30:37.409Z,73.40
2017-10-29T01:33:04.655Z,73.30
2017-10-29T01:35:31.543Z,73.10
2017-10-29T01:37:57.685Z,73.20
2017-10-29T01:40:24.573Z,73.00
2017-10-29T01:42:50.726Z,73.00
2017-10-29T01:45:17.555Z,73.70
2017-10-29T01:47:47.675Z,73.60
2017-10-29T01:50:13.801Z,73.30
2017-10-29T01:52:46.007Z,73.40
2017-10-29T01:55:12.110Z,73.30
2017-10-29T01:57:38.210Z,73.00
2017-10-29T02:00:06.173Z,73.70
2017-10-29T02:02:32.249Z,74.20
2017-10-29T02:04:58.408Z,73.90
2017-10-29T02:07:24.534Z,73.70
2017-10-29T02:09:55.322Z,73.90
2017-10-29T02:12:21.434Z,73.30
2017-10-29T02:14:47.541Z,73.70
2017-10-29T02:17:13.645Z,73.80
2017-10-29T02:19:39.745Z,73.60
2017-10-29T02:22:05.849Z,73.70
2017-10-29T02:24:31.977Z,73.50
2017-10-29T02:26:58.078Z,73.40
2017-10-29T02:29:24.208Z,73.60
2017-10-29T02:31:50.310Z,74.10
2017-10-29T02:34:17.158Z,72.50
2017-10-29T02:36:43.312Z,72.50
2017-10-29T02:39:10.153Z,73.30
2017-10-29T02:41:36.274Z,73.20
2017-10-29T02:46:59.657Z,72.70
2017-10-29T02:49:26.653Z,72.60
2017-10-29T02:51:52.765Z,72.60
2017-10-29T02:54:19.689Z,71.80
2017-10-29T02:56:45.918Z,71.70
2017-10-29T02:59:12.157Z,72.00
2017-10-29T03:01:38.315Z,72.20
2017-10-29T03:04:04.422Z,71.80
2017-10-29T03:06:30.685Z,71.50
2017-10-29T03:08:56.966Z,70.80
2017-10-29T03:11:23.188Z,70.50
2017-10-29T03:14:01.503Z,69.80
2017-10-29T03:16:27.621Z,69.70
2017-10-29T03:18:54.337Z,70.40
2017-10-29T03:21:20.446Z,70.10
2017-10-29T03:23:51.965Z,69.70
2017-10-29T03:26:18.209Z,69.70
2017-10-29T03:28:45.127Z,70.10
2017-10-29T03:31:29.287Z,69.90
2017-10-29T03:34:02.126Z,69.80
2017-10-29T03:36:29.861Z,70.50
2017-10-29T03:38:56.247Z,70.40
2017-10-29T03:41:22.578Z,69.60
2017-10-29T03:43:49.032Z,70.10
2017-10-29T03:46:15.363Z,69.70
2017-10-29T03:48:41.694Z,70.10
2017-10-29T03:51:08.757Z,68.80
2017-10-29T03:53:35.825Z,69.50
2017-10-29T03:56:02.883Z,69.40
2017-10-29T03:58:29.202Z,69.40
2017-10-29T04:00:55.513Z,69.10
2017-10-29T04:03:22.557Z,70.40
2017-10-29T04:05:48.948Z,70.40
2017-10-29T04:08:15.253Z,70.20
2017-10-29T04:10:41.566Z,69.90
2017-10-29T04:13:07.886Z,67.90
2017-10-29T04:15:34.203Z,67.40
2017-10-29T04:18:00.511Z,66.70
2017-10-29T04:20:27.592Z,66.90
2017-10-29T04:22:53.925Z,67.00
2017-10-29T04:25:20.993Z,66.20
2017-10-29T04:27:48.117Z,66.20
2017-10-29T04:30:14.466Z,66.40
2017-10-29T04:32:40.802Z,66.60
2017-10-29T04:35:07.123Z,65.40
2017-10-29T04:37:33.454Z,65.70
2017-10-29T04:40:00.766Z,65.40
2017-10-29T04:42:27.074Z,65.30
2017-10-29T04:44:57.462Z,66.10
2017-10-29T04:47:24.016Z,64.90
2017-10-29T04:49:50.323Z,64.80
2017-10-29T04:52:17.374Z,64.90
2017-10-29T04:54:43.680Z,65.00
2017-10-29T04:57:10.040Z,64.20
2017-10-29T04:59:36.538Z,65.50
2017-10-29T05:02:02.869Z,65.20
2017-10-29T05:04:29.221Z,66.00
2017-10-29T05:06:55.537Z,65.40
2017-10-29T05:09:21.904Z,64.50
2017-10-29T05:11:49.641Z,64.70
2017-10-29T05:14:16.737Z,64.30
2017-10-29T05:16:43.808Z,64.20
2017-10-29T05:19:10.881Z,64.50
2017-10-29T05:21:37.228Z,64.60
2017-10-29T05:24:03.557Z,63.80
2017-10-29T05:26:30.045Z,63.90
2017-10-29T05:28:57.122Z,64.70
2017-10-29T05:31:23.436Z,64.50
2017-10-29T05:33:50.762Z,63.90
2017-10-29T05:36:17.097Z,64.00
2017-10-29T05:38:44.177Z,63.40
2017-10-29T05:41:13.798Z,63.50
2017-10-29T05:43:40.142Z,63.50
2017-10-29T05:46:09.604Z,64.20
2017-10-29T05:48:35.934Z,64.50
2017-10-29T05:51:03.050Z,61.80
2017-10-29T05:53:32.301Z,62.20
2017-10-29T05:56:00.368Z,64.10
2017-10-29T05:58:26.665Z,61.70
2017-10-29T06:00:53.737Z,60.40
2017-10-29T06:03:20.809Z,58.10
2017-10-29T06:05:47.946Z,59.80
2017-10-29T06:08:15.035Z,59.50
2017-10-29T06:10:41.417Z,58.70
2017-10-29T06:13:08.882Z,56.80
2017-10-29T06:15:35.926Z,58.20
2017-10-29T06:18:04.482Z,58.00
2017-10-29T06:20:30.805Z,55.50
2017-10-29T06:25:34.707Z,55.30
2017-10-29T06:28:01.038Z,56.80
2017-10-29T06:30:27.364Z,56.00
2017-10-29T06:32:53.702Z,55.10
2017-10-29T06:35:20.033Z,55.40
2017-10-29T06:37:46.356Z,55.10
2017-10-29T06:40:12.662Z,54.40
2017-10-29T06:42:42.431Z,55.90
2017-10-29T06:45:09.504Z,54.00
2017-10-29T06:47:37.383Z,53.50
2017-10-29T06:50:04.493Z,55.40
2017-10-29T06:52:30.836Z,55.30
2017-10-29T06:54:57.160Z,54.40
2017-10-29T06:57:24.072Z,54.00
2017-10-29T06:59:50.405Z,55.40
2017-10-29T07:02:16.732Z,53.00
2017-10-29T07:04:45.525Z,53.50
2017-10-29T07:07:12.713Z,52.60
2017-10-29T07:09:39.877Z,53.20
2017-10-29T07:12:06.214Z,53.20
2017-10-29T07:14:32.526Z,53.00
2017-10-29T07:16:58.933Z,52.10
2017-10-29T07:19:25.251Z,53.30
2017-10-29T07:21:51.593Z,54.30
2017-10-29T07:24:17.934Z,53.40
2017-10-29T07:26:44.281Z,52.60
2017-10-29T07:29:10.638Z,53.20
2017-10-29T07:31:38.188Z,53.00
2017-10-29T07:34:04.517Z,52.20
2017-10-29T07:36:30.832Z,52.40
2017-10-29T07:38:57.160Z,52.80
2017-10-29T07:41:23.511Z,53.00
2017-10-29T07:43:49.864Z,51.80
2017-10-29T07:46:16.338Z,51.30
2017-10-29T07:48:42.677Z,51.50
2017-10-29T07:51:09.304Z,51.80
2017-10-29T07:53:35.653Z,51.80
2017-10-29T07:56:05.068Z,51.40
2017-10-29T07:58:31.386Z,52.90
2017-10-29T08:00:57.705Z,51.40
2017-10-29T08:03:24.117Z,52.70
2017-10-29T08:05:50.466Z,50.70
2017-10-29T08:08:17.530Z,52.00
2017-10-29T08:10:44.581Z,52.90
2017-10-29T08:13:10.942Z,52.90
2017-10-29T08:15:37.281Z,51.70
2017-10-29T08:18:03.606Z,52.00
2017-10-29T08:20:29.908Z,51.90
2017-10-29T08:22:56.295Z,51.80
2017-10-29T08:25:22.631Z,51.90
2017-10-29T08:27:49.053Z,50.90
2017-10-29T08:30:16.186Z,51.60
2017-10-29T08:32:42.499Z,52.60
2017-10-29T08:35:08.823Z,51.20
2017-10-29T08:37:35.919Z,51.00
2017-10-29T08:40:02.251Z,50.80
2017-10-29T08:42:32.713Z,50.10
2017-10-29T08:44:59.053Z,50.20
2017-10-29T08:47:26.131Z,53.00
2017-10-29T08:49:53.234Z,51.50
2017-10-29T08:52:19.561Z,51.50
2017-10-29T08:54:46.611Z,51.40
2017-10-29T08:57:16.893Z,51.20
2017-10-29T08:59:43.334Z,50.60
2017-10-29T09:02:10.388Z,51.00
2017-10-29T09:07:08.055Z,50.30
2017-10-29T09:09:34.362Z,50.60
2017-10-29T09:12:00.703Z,51.80
2017-10-29T09:14:27.011Z,50.80
2017-10-29T09:16:53.309Z,50.90
2017-10-29T09:19:20.363Z,50.30
2017-10-29T09:21:46.719Z,50.30
2017-10-29T09:24:13.146Z,50.60
2017-10-29T09:26:40.277Z,51.70
2017-10-29T09:29:06.591Z,51.40
2017-10-29T09:31:32.912Z,51.30
2017-10-29T09:33:59.266Z,53.50
2017-10-29T09:36:25.651Z,52.10
2017-10-29T09:38:52.014Z,50.10
2017-10-29T09:41:19.086Z,50.90
2017-10-29T09:43:46.149Z,49.90
2017-10-29T09:46:14.802Z,49.70
2017-10-29T09:48:41.174Z,50.40
2017-10-29T09:51:07.514Z,50.10
2017-10-29T09:53:33.845Z,50.30
2017-10-29T09:56:00.140Z,50.90
2017-10-29T09:58:26.477Z,52.10
2017-10-29T10:00:52.794Z,49.50
2017-10-29T10:03:24.879Z,50.60
2017-10-29T10:05:51.888Z,49.80
2017-10-29T10:08:18.019Z,49.80
2017-10-29T10:10:44.139Z,50.40
2017-10-29T10:13:10.246Z,49.00
2017-10-29T10:15:36.358Z,50.50
2017-10-29T10:18:03.225Z,48.40
2017-10-29T10:20:29.415Z,48.50
2017-10-29T10:22:55.529Z,49.20
2017-10-29T10:25:22.373Z,48.80
2017-10-29T10:27:48.553Z,48.80
2017-10-29T10:30:15.397Z,47.90
2017-10-29T10:32:41.516Z,47.80
2017-10-29T10:35:07.657Z,48.40
2017-10-29T10:37:33.800Z,48.20
2017-10-29T10:39:59.936Z,48.10
2017-10-29T10:42:26.056Z,48.60
2017-10-29T10:44:52.182Z,49.00
2017-10-29T10:47:18.302Z,49.20
2017-10-29T10:49:44.668Z,47.90
2017-10-29T10:52:10.832Z,49.10
2017-10-29T10:54:37.140Z,49.50
2017-10-29T10:57:03.511Z,48.70
2017-10-29T10:59:29.923Z,47.60
2017-10-29T11:01:57.536Z,47.30
2017-10-29T11:04:40.294Z,49.50
2017-10-29T11:07:07.379Z,49.80
2017-10-29T11:09:33.738Z,49.70
2017-10-29T11:12:00.047Z,50.60
2017-10-29T11:14:26.442Z,47.30
2017-10-29T11:16:52.751Z,48.70
2017-10-29T11:19:19.088Z,48.00
2017-10-29T11:21:45.401Z,47.10
2017-10-29T11:24:12.486Z,47.90
2017-10-29T11:26:39.546Z,48.20
2017-10-29T11:29:06.149Z,48.20
2017-10-29T11:31:32.473Z,48.40
2017-10-29T11:33:58.752Z,47.30
2017-10-29T11:36:25.182Z,47.30
2017-10-29T11:38:52.240Z,49.10
2017-10-29T11:41:18.589Z,49.00
2017-10-29T11:43:44.903Z,49.30
2017-10-29T11:46:11.221Z,49.70
2017-10-29T11:48:37.583Z,47.60
2017-10-29T11:51:03.926Z,46.00
2017-10-29T11:53:31.444Z,46.60
2017-10-29T11:55:58.041Z,46.90
2017-10-29T11:58:26.325Z,46.20
2017-10-29T12:00:52.438Z,46.20
2017-10-29T12:03:18.519Z,46.20
2017-10-29T12:05:45.923Z,46.30
2017-10-29T12:08:12.798Z,46.60
2017-10-29T12:10:38.931Z,46.60
2017-10-29T12:13:05.798Z,46.80
2017-10-29T12:15:31.906Z,46.70
2017-10-29T12:17:58.011Z,46.50
2017-10-29T12:20:24.100Z,46.00
2017-10-29T12:22:50.213Z,46.70
2017-10-29T12:25:17.361Z,47.40
2017-10-29T12:27:44.485Z,48.10
2017-10-29T12:30:10.846Z,48.00
2017-10-29T12:32:44.180Z,47.50
2017-10-29T12:35:10.349Z,47.00
2017-10-29T12:37:36.560Z,47.70
2017-10-29T12:40:02.677Z,47.20
2017-10-29T12:42:29.572Z,49.00
2017-10-29T12:44:56.425Z,47.90
2017-10-29T12:47:23.309Z,48.00
2017-10-29T12:49:55.957Z,47.90
2017-10-29T12:52:22.127Z,47.00
2017-10-29T12:54:49.034Z,48.30
2017-10-29T12:57:15.199Z,48.40
2017-10-29T12:59:41.386Z,47.00
2017-10-29T13:02:07.506Z,48.10
2017-10-29T13:04:33.633Z,48.10
2017-10-29T13:06:59.800Z,48.40
2017-10-29T13:09:25.929Z,47.50
2017-10-29T13:11:52.040Z,48.40
2017-10-29T13:14:18.895Z,46.90
2017-10-29T13:16:45.062Z,46.70
2017-10-29T13:19:11.184Z,46.70
2017-10-29T13:21:38.025Z,46.10
2017-10-29T13:24:04.135Z,45.60
2017-10-29T13:26:30.252Z,45.90
2017-10-29T13:28:59.991Z,46.60
2017-10-29T13:31:26.208Z,44.70
2017-10-29T13:33:53.093Z,42.60
2017-10-29T13:36:19.282Z,42.50
2017-10-29T13:38:45.519Z,44.50
2017-10-29T13:41:12.357Z,44.40
2017-10-29T13:43:38.495Z,45.00
2017-10-29T13:46:10.686Z,44.70
2017-10-29T13:48:36.803Z,44.20
2017-10-29T13:51:02.966Z,44.60
2017-10-29T13:53:29.089Z,46.10
2017-10-29T13:55:55.976Z,44.20
2017-10-29T13:58:22.877Z,42.50
2017-10-29T14:00:48.990Z,42.50
2017-10-29T14:03:17.272Z,44.10
2017-10-29T14:05:43.430Z,44.10
2017-10-29T14:08:09.561Z,44.00
2017-10-29T14:10:37.524Z,44.20
2017-10-29T14:13:04.597Z,44.20
2017-10-29T14:15:33.648Z,44.60
2017-10-29T14:20:48.930Z,43.90
2017-10-29T14:26:15.520Z,43.70
2017-10-29T14:28:41.867Z,42.90
2017-10-29T14:31:08.210Z,44.00
2017-10-29T14:33:35.714Z,42.40
2017-10-29T14:36:02.067Z,42.70
2017-10-29T14:38:28.459Z,43.80
2017-10-29T14:40:54.997Z,44.30
2017-10-29T14:43:21.361Z,42.70
2017-10-29T14:45:47.775Z,43.80
2017-10-29T14:48:14.176Z,43.80
2017-10-29T14:50:41.292Z,44.20
2017-10-29T14:53:07.624Z,44.10
2017-10-29T14:55:33.928Z,44.70
2017-10-29T14:58:00.258Z,44.60
2017-10-29T15:00:27.769Z,45.70
2017-10-29T15:02:55.818Z,46.30
2017-10-29T15:05:24.044Z,44.20
2017-10-29T15:07:51.761Z,44.20
2017-10-29T15:10:21.200Z,44.20
2017-10-29T15:12:48.365Z,44.40
2017-10-29T15:15:15.700Z,44.10
2017-10-29T15:17:42.225Z,43.40
2017-10-29T15:20:09.906Z,45.00
2017-10-29T15:22:37.108Z,45.00
2017-10-29T15:25:05.117Z,44.10
2017-10-29T15:27:32.801Z,44.80
2017-10-29T15:29:59.131Z,44.80
2017-10-29T15:32:27.856Z,44.10
2017-10-29T15:34:54.735Z,44.10
2017-10-29T15:37:21.952Z,44.80
2017-10-29T15:39:51.806Z,46.70
2017-10-29T15:42:19.387Z,46.60
2017-10-29T15:44:47.450Z,45.20
2017-10-29T15:47:17.706Z,45.20
2017-10-29T15:49:45.023Z,45.30
2017-10-29T15:52:12.187Z,45.60
2017-10-29T15:54:39.282Z,46.10
2017-10-29T15:57:05.644Z,46.60
2017-10-29T15:59:32.022Z,46.50
2017-10-29T16:01:58.372Z,45.70
2017-10-29T16:04:24.709Z,46.90
2017-10-29T16:06:51.139Z,46.30
2017-10-29T16:09:17.469Z,47.00
2017-10-29T16:11:44.575Z,46.00
2017-10-29T16:14:10.925Z,45.90
2017-10-29T16:16:37.281Z,47.20
2017-10-29T16:19:03.641Z,46.40
2017-10-29T16:21:30.040Z,47.50
2017-10-29T16:23:57.118Z,46.70
2017-10-29T16:26:24.221Z,47.90
2017-10-29T16:28:51.589Z,47.90
2017-10-29T16:31:17.941Z,47.50
2017-10-29T16:33:44.292Z,47.70
2017-10-29T16:36:10.632Z,48.00
2017-10-29T16:38:37.112Z,47.10
2017-10-29T16:41:04.305Z,47.60
2017-10-29T16:43:30.756Z,47.90
2017-10-29T16:45:57.084Z,47.90
2017-10-29T16:48:24.153Z,48.40
2017-10-29T16:50:51.307Z,47.60
2017-10-29T16:53:17.655Z,47.60
2017-10-29T16:55:44.453Z,47.00
2017-10-29T16:58:10.786Z,48.20
2017-10-29T17:00:37.126Z,48.20
2017-10-29T17:03:03.445Z,48.40
2017-10-29T17:05:29.807Z,47.30
2017-10-29T17:07:56.146Z,47.40
2017-10-29T17:10:22.479Z,47.60
2017-10-29T17:12:48.844Z,48.00
2017-10-29T17:15:15.190Z,49.00
2017-10-29T17:17:41.548Z,48.40
2017-10-29T17:20:07.901Z,48.90
2017-10-29T17:22:34.274Z,47.60
2017-10-29T17:25:00.624Z,48.40
2017-10-29T17:27:26.960Z,48.70
2017-10-29T17:29:53.319Z,48.80
2017-10-29T17:32:20.296Z,49.00
2017-10-29T17:34:47.440Z,48.70
2017-10-29T17:37:13.793Z,49.40
2017-10-29T17:39:40.882Z,49.70
2017-10-29T17:42:10.520Z,51.80
2017-10-29T17:44:36.976Z,51.80
2017-10-29T17:47:04.043Z,49.10
2017-10-29T17:49:30.416Z,49.00
2017-10-29T17:51:56.799Z,49.30
2017-10-29T17:54:23.160Z,48.70
2017-10-29T17:56:49.754Z,49.00
2017-10-29T17:59:16.309Z,49.50
2017-10-29T18:01:43.393Z,50.40
2017-10-29T18:04:09.736Z,50.40
2017-10-29T18:06:36.834Z,50.80
2017-10-29T18:09:03.188Z,49.90
2017-10-29T18:11:29.538Z,51.60
2017-10-29T18:13:55.928Z,51.50
2017-10-29T18:16:22.277Z,51.30
2017-10-29T18:18:48.727Z,52.10
2017-10-29T18:21:15.064Z,52.00
2017-10-29T18:23:41.568Z,51.90
2017-10-29T18:26:07.882Z,52.20
2017-10-29T18:28:34.246Z,52.20
2017-10-29T18:31:00.677Z,53.20
2017-10-29T18:33:27.193Z,52.20
2017-10-29T18:35:53.537Z,52.30
2017-10-29T18:38:19.917Z,53.50
2017-10-29T18:40:46.355Z,52.80
2017-10-29T18:43:12.832Z,53.10
2017-10-29T18:45:39.688Z,53.80
2017-10-29T18:48:07.594Z,53.90
2017-10-29T18:50:36.683Z,53.30
2017-10-29T18:53:03.053Z,52.80
2017-10-29T18:55:29.722Z,52.60
2017-10-29T18:57:56.076Z,53.00
2017-10-29T19:00:22.439Z,52.90
2017-10-29T19:02:49.588Z,52.90
2017-10-29T19:05:16.075Z,52.90
2017-10-29T19:07:42.508Z,53.50
2017-10-29T19:10:08.890Z,53.30
2017-10-29T19:12:35.233Z,53.60
2017-10-29T19:15:02.329Z,54.10
2017-10-29T19:17:28.676Z,54.00
2017-10-29T19:19:55.076Z,55.10
2017-10-29T19:22:22.174Z,54.50
2017-10-29T19:24:48.505Z,54.50
2017-10-29T19:27:14.936Z,54.70
2017-10-29T19:29:41.321Z,54.20
2017-10-29T19:32:07.689Z,54.50
2017-10-29T19:34:34.121Z,55.20
2017-10-29T19:37:00.500Z,55.30
2017-10-29T19:39:27.017Z,54.70
2017-10-29T19:41:53.385Z,54.60
2017-10-29T19:44:22.145Z,55.30
2017-10-29T19:46:49.297Z,54.90
2017-10-29T19:49:15.658Z,54.90
2017-10-29T19:51:42.058Z,54.90
2017-10-29T19:54:08.380Z,55.30
2017-10-29T19:56:34.715Z,55.10
2017-10-29T19:59:04.752Z,54.30
2017-10-29T20:01:31.829Z,54.60
2017-10-29T20:03:58.228Z,54.50
2017-10-29T20:06:24.566Z,54.60
2017-10-29T20:08:51.803Z,54.80
2017-10-29T20:11:18.208Z,55.00
2017-10-29T20:13:44.599Z,54.60
2017-10-29T20:16:11.735Z,54.30
2017-10-29T20:18:38.104Z,54.70
2017-10-29T20:21:04.437Z,55.00
2017-10-29T20:23:30.831Z,55.40
2017-10-29T20:25:57.184Z,55.60
2017-10-29T20:28:24.379Z,55.80
2017-10-29T20:30:50.745Z,56.00
2017-10-29T20:33:23.901Z,55.90
2017-10-29T20:35:51.132Z,56.40
2017-10-29T20:38:18.246Z,56.00
2017-10-29T20:40:45.422Z,55.90
2017-10-29T20:43:11.825Z,55.90
2017-10-29T20:45:38.232Z,56.30
2017-10-29T20:48:05.390Z,55.70
2017-10-29T20:50:31.708Z,55.60
2017-10-29T20:53:01.055Z,55.50
2017-10-29T20:55:27.497Z,55.20
2017-10-29T20:57:53.860Z,55.70
2017-10-29T21:00:20.188Z,55.80
2017-10-29T21:02:46.569Z,55.80
2017-10-29T21:05:12.874Z,56.10
2017-10-29T21:07:39.213Z,55.80
2017-10-29T21:10:05.552Z,56.10
2017-10-29T21:12:32.643Z,56.70
2017-10-29T21:14:58.981Z,56.70
2017-10-29T21:17:26.391Z,56.80
2017-10-29T21:19:52.865Z,56.70
2017-10-29T21:22:19.203Z,57.20
2017-10-29T21:24:46.424Z,56.80
2017-10-29T21:27:12.798Z,56.70
2017-10-29T21:29:39.133Z,57.20
2017-10-29T21:32:05.451Z,57.80
2017-10-29T21:34:31.789Z,58.10
2017-10-29T21:36:58.134Z,57.60
2017-10-29T21:39:24.521Z,57.00
2017-10-29T21:41:50.851Z,57.10
2017-10-29T21:44:17.351Z,57.60
2017-10-29T21:46:43.709Z,57.70
2017-10-29T21:49:10.886Z,58.40
2017-10-29T21:51:37.241Z,57.70
2017-10-29T21:54:03.629Z,57.50
2017-10-29T21:56:29.953Z,57.00
2017-10-29T21:58:57.109Z,57.60
2017-10-29T22:01:24.169Z,57.60
2017-10-29T22:03:50.504Z,57.50
2017-10-29T22:06:17.645Z,57.70
2017-10-29T22:08:44.018Z,57.70
2017-10-29T22:11:10.511Z,57.10
2017-10-29T22:13:36.842Z,57.80
2017-10-29T22:16:03.169Z,57.10
2017-10-29T22:18:30.219Z,58.00
2017-10-29T22:20:57.272Z,57.00
2017-10-29T22:23:24.337Z,57.00
2017-10-29T22:25:51.410Z,57.40
2017-10-29T22:28:17.773Z,56.80
2017-10-29T22:30:44.173Z,56.90
2017-10-29T22:33:11.337Z,57.40
2017-10-29T22:35:37.729Z,57.30
2017-10-29T22:38:04.078Z,57.70
2017-10-29T22:40:30.431Z,57.10
2017-10-29T22:42:56.758Z,56.80
2017-10-29T22:45:23.112Z,56.80
2017-10-29T22:47:49.470Z,58.00
2017-10-29T22:50:15.813Z,57.90
2017-10-29T22:52:42.147Z,57.40
2017-10-29T22:55:08.478Z,57.00
2017-10-29T22:57:34.809Z,57.30
2017-10-29T23:00:01.165Z,57.40
2017-10-29T23:02:27.727Z,58.40
2017-10-29T23:05:06.217Z,57.40
2017-10-29T23:07:38.685Z,57.90
2017-10-29T23:10:05.846Z,57.70
2017-10-29T23:12:32.937Z,57.70
2017-10-29T23:14:59.266Z,57.70
2017-10-29T23:17:25.630Z,57.60
2017-10-29T23:19:52.204Z,57.60
2017-10-29T23:22:18.737Z,56.60
2017-10-29T23:24:45.103Z,56.80
2017-10-29T23:27:12.174Z,56.50
2017-10-29T23:29:38.969Z,56.50
2017-10-29T23:32:05.316Z,56.50
2017-10-29T23:34:31.673Z,56.80
2017-10-29T23:36:58.017Z,56.90
2017-10-29T23:39:24.985Z,57.10
2017-10-29T23:41:51.333Z,57.20
2017-10-29T23:44:17.695Z,57.80
2017-10-29T23:46:44.033Z,57.60
2017-10-29T23:49:10.463Z,58.40
2017-10-29T23:51:36.822Z,58.20
2017-10-29T23:54:03.187Z,58.10
2017-10-29T23:56:30.280Z,58.70
2017-10-29T23:58:56.621Z,58.70
